Time;durP1;ratioP1;P1;durP2;ratioP2;P2;SDS_P1;SDS_P2;PMS_P1;PMS_P2;Temp;Humidity;BMP_temperature;BMP_pressure;BME280_temperature;BME280_humidity;BME280_pressure;Samples;Min_cycle;Max_cycle;Signal;HPM_P1;HPM_P2
2022/10/13 00:01:33;;;;;;;23.77;12.60;;;12.40;99.90;;;;;;4977410;28;20042;-78
2022/10/13 00:04:00;;;;;;;25.23;12.68;;;12.50;99.90;;;;;;4973565;28;20052;-78
2022/10/13 00:06:27;;;;;;;26.80;13.55;;;12.50;99.90;;;;;;4976742;28;20034;-77
2022/10/13 00:08:55;;;;;;;24.90;12.02;;;12.50;99.90;;;;;;4971079;28;20048;-78
2022/10/13 00:11:24;;;;;;;24.80;12.65;;;12.50;99.90;;;;;;4997928;23;20050;-86
2022/10/13 00:13:56;;;;;;;27.33;12.70;;;12.50;99.90;;;;;;4992717;28;20057;-86
2022/10/13 00:16:22;;;;;;;26.33;12.63;;;12.50;99.90;;;;;;4990061;28;20187;-86
2022/10/13 00:18:50;;;;;;;25.58;12.50;;;12.50;99.90;;;;;;4990152;28;20046;-85
2022/10/13 00:21:18;;;;;;;26.02;13.45;;;12.60;99.90;;;;;;4992109;28;20047;-85
2022/10/13 00:23:46;;;;;;;23.30;12.30;;;12.60;99.90;;;;;;4987960;28;20113;-85
2022/10/13 00:26:19;;;;;;;23.30;12.13;;;12.60;99.90;;;;;;4976043;28;20406;-85
2022/10/13 00:28:46;;;;;;;23.65;12.68;;;12.60;99.90;;;;;;4986129;28;20049;-85
2022/10/13 00:31:18;;;;;;;23.88;13.57;;;12.60;99.90;;;;;;4994863;28;20052;-86
2022/10/13 00:33:45;;;;;;;23.45;13.57;;;12.60;99.90;;;;;;4994492;28;20140;-85
2022/10/13 00:36:13;;;;;;;23.30;12.93;;;12.60;99.90;;;;;;4997331;28;20053;-85
2022/10/13 00:38:40;;;;;;;22.92;12.85;;;12.60;99.90;;;;;;5001328;28;20081;-86
2022/10/13 00:41:07;;;;;;;31.02;13.00;;;12.60;99.90;;;;;;4997546;28;20145;-86
2022/10/13 00:43:56;;;;;;;28.02;13.95;;;12.60;99.90;;;;;;4998031;28;20509;-86
2022/10/13 00:46:26;;;;;;;26.05;12.75;;;12.60;99.90;;;;;;4991447;28;20038;-85
2022/10/13 00:48:59;;;;;;;28.25;14.18;;;12.60;99.90;;;;;;4982181;28;20137;-85
2022/10/13 00:51:29;;;;;;;25.38;13.05;;;12.80;99.90;;;;;;4994079;28;20074;-86
2022/10/13 00:53:57;;;;;;;26.52;14.02;;;12.70;99.90;;;;;;4995413;28;20058;-85
2022/10/13 00:56:25;;;;;;;26.90;13.63;;;12.70;99.90;;;;;;4995940;28;20038;-85
2022/10/13 00:58:53;;;;;;;24.30;12.68;;;12.70;99.90;;;;;;4991946;28;20111;-86
2022/10/13 01:01:20;;;;;;;21.63;12.45;;;12.60;99.90;;;;;;4993054;28;20046;-85
2022/10/13 01:03:48;;;;;;;23.08;12.75;;;12.60;99.90;;;;;;4975488;28;20424;-86
2022/10/13 01:06:16;;;;;;;26.10;12.32;;;12.60;99.90;;;;;;4978900;28;20054;-86
2022/10/13 01:08:42;;;;;;;30.08;12.50;;;12.70;99.90;;;;;;4995553;28;20053;-86
2022/10/13 01:11:30;;;;;;;24.00;12.15;;;12.70;99.90;;;;;;4995100;28;20042;-86
2022/10/13 01:14:03;;;;;;;20.80;12.50;;;12.70;99.90;;;;;;4984698;28;22099;-86
2022/10/13 01:16:35;;;;;;;25.05;11.88;;;12.70;99.90;;;;;;4995207;28;20042;-86
2022/10/13 01:19:14;;;;;;;24.58;12.20;;;12.70;99.90;;;;;;4980572;28;20054;-86
2022/10/13 01:21:44;;;;;;;24.15;12.05;;;12.70;99.90;;;;;;4995785;28;20046;-86
2022/10/13 01:24:41;;;;;;;30.40;12.57;;;12.70;99.90;;;;;;4994934;28;20068;-86
2022/10/13 01:27:13;;;;;;;28.80;11.65;;;12.70;99.90;;;;;;4992292;28;20303;-86
2022/10/13 01:30:05;;;;;;;26.67;12.75;;;12.70;99.90;;;;;;4994582;28;20077;-85
2022/10/13 01:32:41;;;;;;;23.52;12.90;;;12.70;99.90;;;;;;4971816;28;20125;-86
2022/10/13 01:35:11;;;;;;;23.42;11.93;;;12.70;99.90;;;;;;4969511;28;20091;-86
2022/10/13 01:37:44;;;;;;;25.52;12.30;;;12.70;99.90;;;;;;4992013;28;20521;-86
2022/10/13 01:40:16;;;;;;;25.25;12.45;;;12.70;99.90;;;;;;4997093;28;20061;-86
2022/10/13 01:42:48;;;;;;;25.08;12.35;;;12.80;99.90;;;;;;4991227;28;20050;-86
2022/10/13 01:45:19;;;;;;;20.70;12.27;;;12.70;99.90;;;;;;4991955;28;20054;-86
2022/10/13 01:47:46;;;;;;;20.83;12.10;;;12.80;99.90;;;;;;4995538;28;20046;-86
2022/10/13 01:50:15;;;;;;;26.80;12.63;;;12.80;99.90;;;;;;4992006;28;20418;-86
2022/10/13 01:52:42;;;;;;;27.73;12.85;;;12.80;99.90;;;;;;4991868;28;20046;-86
2022/10/13 01:55:11;;;;;;;24.52;11.95;;;12.80;99.90;;;;;;4993415;28;20048;-86
2022/10/13 01:57:41;;;;;;;21.65;12.65;;;12.80;99.90;;;;;;4988596;28;20042;-85
2022/10/13 02:00:10;;;;;;;28.15;12.32;;;12.80;99.90;;;;;;4974378;28;20062;-86
2022/10/13 02:02:46;;;;;;;19.92;11.60;;;12.80;99.90;;;;;;4993383;28;20092;-86
2022/10/13 02:05:20;;;;;;;26.13;12.43;;;12.80;99.90;;;;;;4992702;28;20058;-86
2022/10/13 02:07:51;;;;;;;21.70;11.93;;;12.90;99.90;;;;;;4993906;28;20164;-86
2022/10/13 02:10:28;;;;;;;24.60;12.02;;;12.90;99.90;;;;;;4982855;28;20039;-86
2022/10/13 02:12:58;;;;;;;25.92;12.00;;;12.90;99.90;;;;;;4990771;28;20049;-86
2022/10/13 02:15:29;;;;;;;25.08;12.68;;;12.90;99.90;;;;;;4971634;28;20046;-86
2022/10/13 02:18:02;;;;;;;24.90;12.25;;;12.90;99.90;;;;;;4993084;28;20125;-85
2022/10/13 02:20:29;;;;;;;24.50;12.50;;;13.00;99.90;;;;;;4995498;28;20045;-86
2022/10/13 02:22:59;;;;;;;24.65;12.23;;;13.00;99.90;;;;;;4997918;28;20050;-86
2022/10/13 02:25:27;;;;;;;27.83;12.65;;;12.90;99.90;;;;;;4994403;28;20120;-85
2022/10/13 02:27:54;;;;;;;29.08;12.60;;;12.90;99.90;;;;;;4988765;28;20407;-86
2022/10/13 02:30:23;;;;;;;24.67;12.43;;;12.90;99.90;;;;;;5000004;28;20054;-86
2022/10/13 02:32:50;;;;;;;20.15;11.55;;;13.00;99.90;;;;;;4997406;28;20702;-85
2022/10/13 02:35:19;;;;;;;22.08;12.18;;;13.00;99.90;;;;;;4991411;28;20046;-86
2022/10/13 02:37:45;;;;;;;22.25;12.73;;;13.00;99.90;;;;;;4988573;28;20083;-86
2022/10/13 02:40:13;;;;;;;23.75;12.10;;;13.00;99.90;;;;;;4988550;28;20054;-86
2022/10/13 02:42:40;;;;;;;25.83;13.02;;;13.00;99.90;;;;;;4986922;28;20101;-86
2022/10/13 02:45:08;;;;;;;21.95;13.32;;;13.00;99.90;;;;;;4987247;28;20046;-86
2022/10/13 02:47:35;;;;;;;24.65;13.05;;;13.00;99.90;;;;;;4993015;28;20042;-86
2022/10/13 02:50:04;;;;;;;25.05;13.32;;;13.00;99.90;;;;;;4992510;28;20470;-86
2022/10/13 02:52:32;;;;;;;35.22;13.80;;;13.00;99.90;;;;;;4999916;28;20038;-86
2022/10/13 02:54:59;;;;;;;26.50;12.77;;;13.00;99.90;;;;;;4992045;28;20055;-86
2022/10/13 02:57:26;;;;;;;23.02;12.35;;;13.10;99.90;;;;;;5002245;28;20746;-86
2022/10/13 02:59:53;;;;;;;32.17;12.85;;;13.00;99.90;;;;;;4996491;28;20502;-86
2022/10/13 03:02:20;;;;;;;25.60;13.30;;;13.00;99.90;;;;;;4987336;28;20526;-86
2022/10/13 03:04:47;;;;;;;24.70;12.50;;;13.00;99.90;;;;;;4992188;28;20046;-86
2022/10/13 03:07:14;;;;;;;26.25;13.25;;;13.00;99.90;;;;;;4991372;28;20045;-86
2022/10/13 03:09:44;;;;;;;24.17;12.85;;;13.00;99.90;;;;;;4978219;28;20053;-85
2022/10/13 03:12:11;;;;;;;23.38;12.18;;;13.10;99.90;;;;;;4989846;28;20555;-86
2022/10/13 03:14:38;;;;;;;23.88;13.20;;;13.10;99.90;;;;;;4985870;28;20043;-86
2022/10/13 03:17:05;;;;;;;27.25;13.38;;;13.10;99.90;;;;;;4991722;28;20046;-86
2022/10/13 03:19:32;;;;;;;25.13;12.85;;;13.10;99.90;;;;;;4992056;28;20050;-86
2022/10/13 03:21:59;;;;;;;29.60;13.82;;;13.10;99.90;;;;;;4994846;28;20049;-86
2022/10/13 03:24:25;;;;;;;25.48;13.15;;;13.10;99.90;;;;;;4975833;28;20056;-86
2022/10/13 03:26:54;;;;;;;27.35;13.27;;;13.20;99.90;;;;;;4995451;28;20049;-86
2022/10/13 03:29:22;;;;;;;24.38;12.57;;;13.10;99.90;;;;;;4994388;28;20049;-85
2022/10/13 03:31:49;;;;;;;24.55;12.65;;;13.20;99.90;;;;;;4996112;28;20125;-86
2022/10/13 03:34:19;;;;;;;24.95;12.65;;;13.20;99.90;;;;;;4991412;28;20043;-86
2022/10/13 03:36:46;;;;;;;25.80;13.13;;;13.20;99.90;;;;;;4995180;28;20487;-86
2022/10/13 03:39:13;;;;;;;26.08;12.68;;;13.20;99.90;;;;;;4997754;28;20052;-86
2022/10/13 03:41:40;;;;;;;23.85;12.73;;;13.20;99.90;;;;;;4991450;28;20044;-86
2022/10/13 03:44:11;;;;;;;22.25;11.93;;;13.20;99.90;;;;;;4993451;28;20611;-86
2022/10/13 03:46:38;;;;;;;25.65;12.68;;;13.20;99.90;;;;;;4990729;28;20124;-86
2022/10/13 03:49:04;;;;;;;22.40;12.20;;;13.20;99.90;;;;;;4999248;28;20042;-86
2022/10/13 03:51:31;;;;;;;25.27;13.32;;;13.20;99.90;;;;;;4995148;28;20427;-86
2022/10/13 03:53:58;;;;;;;24.42;11.40;;;13.20;99.90;;;;;;4994739;28;20512;-86
2022/10/13 03:56:26;;;;;;;20.05;12.23;;;13.20;99.90;;;;;;4994344;28;20043;-86
2022/10/13 03:58:55;;;;;;;22.20;11.80;;;13.20;99.90;;;;;;4991180;28;20675;-86
2022/10/13 04:01:25;;;;;;;23.52;12.05;;;13.20;99.90;;;;;;4997081;28;20046;-86
2022/10/13 04:03:53;;;;;;;20.33;11.75;;;13.20;99.90;;;;;;4994694;28;20041;-86
2022/10/13 04:06:20;;;;;;;24.65;12.40;;;13.20;99.90;;;;;;4998756;28;20073;-86
2022/10/13 04:08:47;;;;;;;26.48;12.45;;;13.20;99.90;;;;;;4989739;28;20057;-86
2022/10/13 04:11:16;;;;;;;26.30;12.10;;;13.20;99.90;;;;;;4992306;28;20529;-86
2022/10/13 04:13:44;;;;;;;22.83;11.68;;;13.20;99.90;;;;;;4993123;28;20108;-86
2022/10/13 04:16:14;;;;;;;21.35;11.45;;;13.30;99.90;;;;;;4994943;28;20133;-86
2022/10/13 04:18:42;;;;;;;20.88;11.18;;;13.20;99.90;;;;;;4991616;28;20042;-86
2022/10/13 04:21:10;;;;;;;26.13;11.32;;;13.30;99.90;;;;;;4991598;28;20061;-86
2022/10/13 04:23:38;;;;;;;23.17;11.57;;;13.30;99.90;;;;;;4993255;28;20055;-86
2022/10/13 04:26:05;;;;;;;22.50;11.70;;;13.30;99.90;;;;;;4996941;28;20042;-86
2022/10/13 04:28:34;;;;;;;20.08;10.38;;;13.30;99.90;;;;;;4996761;28;20053;-86
2022/10/13 04:31:01;;;;;;;23.27;11.65;;;13.30;99.90;;;;;;4993821;28;20046;-86
2022/10/13 04:33:28;;;;;;;24.63;11.45;;;13.30;99.90;;;;;;4992817;28;20414;-86
2022/10/13 04:35:57;;;;;;;24.55;11.25;;;13.30;99.90;;;;;;4996188;28;20050;-86
2022/10/13 04:38:23;;;;;;;23.15;10.98;;;13.30;99.90;;;;;;4991967;28;20041;-86
2022/10/13 04:40:50;;;;;;;28.25;10.60;;;13.30;99.90;;;;;;4996779;28;20114;-86
2022/10/13 04:43:17;;;;;;;21.85;10.82;;;13.30;99.90;;;;;;4993927;28;20048;-86
2022/10/13 04:45:44;;;;;;;23.95;10.88;;;13.50;99.90;;;;;;4989780;28;20812;-86
2022/10/13 04:48:11;;;;;;;22.27;10.57;;;13.30;99.90;;;;;;4979195;28;20676;-86
2022/10/13 04:50:38;;;;;;;24.92;10.60;;;13.30;99.90;;;;;;4997331;28;20736;-86
2022/10/13 04:53:07;;;;;;;19.08;10.23;;;13.40;99.90;;;;;;4996548;28;20065;-86
2022/10/13 04:55:36;;;;;;;21.05;10.60;;;13.40;99.90;;;;;;4992205;28;20129;-86
2022/10/13 04:58:03;;;;;;;22.65;10.68;;;13.40;99.90;;;;;;4989366;28;20038;-86
2022/10/13 05:00:30;;;;;;;22.40;10.85;;;13.40;99.90;;;;;;4992411;28;20074;-86
2022/10/13 05:02:57;;;;;;;21.55;10.57;;;13.40;99.90;;;;;;4991698;28;20046;-86
2022/10/13 05:05:24;;;;;;;25.77;10.98;;;13.40;99.90;;;;;;4991516;28;20046;-86
2022/10/13 05:07:51;;;;;;;24.65;11.43;;;13.40;99.90;;;;;;4991866;28;20030;-86
2022/10/13 05:10:19;;;;;;;21.40;10.35;;;13.40;99.90;;;;;;4992507;28;20050;-86
2022/10/13 05:12:46;;;;;;;23.23;10.95;;;13.40;99.90;;;;;;4988704;28;20077;-86
2022/10/13 05:15:13;;;;;;;20.55;10.40;;;13.40;99.90;;;;;;4989877;28;20073;-86
2022/10/13 05:17:40;;;;;;;20.00;9.73;;;13.40;99.90;;;;;;4996042;28;20043;-86
2022/10/13 05:20:09;;;;;;;23.02;11.10;;;13.40;99.90;;;;;;4997615;28;20038;-86
2022/10/13 05:22:36;;;;;;;22.20;11.02;;;13.40;99.90;;;;;;5002001;28;20077;-85
2022/10/13 05:25:06;;;;;;;19.27;9.93;;;13.50;99.90;;;;;;4989262;28;20601;-85
2022/10/13 05:27:35;;;;;;;25.13;10.65;;;13.50;99.90;;;;;;4992055;28;20416;-84
2022/10/13 05:30:05;;;;;;;25.13;9.98;;;13.50;99.90;;;;;;5001695;28;20048;-84
2022/10/13 05:32:34;;;;;;;20.98;9.93;;;13.50;99.90;;;;;;4995285;28;20054;-85
2022/10/13 05:35:01;;;;;;;18.08;10.20;;;13.50;99.90;;;;;;4990517;28;20050;-86
2022/10/13 05:37:28;;;;;;;19.10;9.57;;;13.50;99.90;;;;;;4986330;28;20727;-85
2022/10/13 05:39:54;;;;;;;20.10;9.77;;;13.50;99.90;;;;;;4988949;28;20125;-85
2022/10/13 05:42:21;;;;;;;20.17;10.70;;;13.50;99.90;;;;;;4991344;28;20042;-85
2022/10/13 05:44:50;;;;;;;25.52;9.82;;;13.50;99.90;;;;;;4973516;28;20522;-85
2022/10/13 05:47:16;;;;;;;18.05;9.93;;;13.50;99.90;;;;;;4986544;28;20045;-86
2022/10/13 05:49:45;;;;;;;19.02;9.80;;;13.50;99.90;;;;;;4989602;28;20054;-84
2022/10/13 05:52:12;;;;;;;17.85;9.63;;;13.50;99.90;;;;;;4990496;28;20050;-85
2022/10/13 05:54:41;;;;;;;21.20;9.98;;;13.50;99.90;;;;;;4988928;28;20502;-87
2022/10/13 05:57:12;;;;;;;20.08;10.18;;;13.50;99.90;;;;;;4975190;28;20085;-85
2022/10/13 05:59:43;;;;;;;19.45;9.60;;;13.50;99.90;;;;;;4989700;28;20057;-86
2022/10/13 06:02:12;;;;;;;20.83;9.95;;;13.60;99.90;;;;;;5007640;23;20132;-85
2022/10/13 06:04:41;;;;;;;20.25;10.05;;;13.50;99.90;;;;;;5009228;28;20081;-84
2022/10/13 06:07:09;;;;;;;20.10;9.55;;;13.50;99.90;;;;;;5009046;28;20053;-84
2022/10/13 06:09:38;;;;;;;20.25;10.48;;;13.50;99.90;;;;;;5009566;28;20045;-83
2022/10/13 06:12:06;;;;;;;19.00;9.77;;;13.50;99.90;;;;;;5017812;28;20728;-84
2022/10/13 06:14:33;;;;;;;21.33;10.98;;;13.50;99.90;;;;;;5009163;28;20514;-82
2022/10/13 06:17:01;;;;;;;19.38;9.60;;;13.50;99.90;;;;;;5010791;28;20050;-82
2022/10/13 06:19:30;;;;;;;18.67;9.43;;;13.50;99.90;;;;;;5029087;28;20052;-84
2022/10/13 06:21:57;;;;;;;19.08;9.85;;;13.50;99.90;;;;;;5034536;22;20053;-75
2022/10/13 06:24:24;;;;;;;19.30;9.82;;;13.50;99.90;;;;;;4992775;28;20132;-76
2022/10/13 06:26:51;;;;;;;24.67;10.65;;;13.50;99.90;;;;;;4998111;28;20045;-75
2022/10/13 06:29:17;;;;;;;17.13;9.90;;;13.50;99.90;;;;;;5011966;28;20034;-77
2022/10/13 06:31:44;;;;;;;21.45;10.32;;;13.50;99.90;;;;;;5005815;28;20129;-76
2022/10/13 06:34:12;;;;;;;20.55;9.70;;;13.50;99.90;;;;;;5000840;28;20057;-77
2022/10/13 06:36:41;;;;;;;18.33;10.07;;;13.50;99.90;;;;;;4995287;28;20043;-77
2022/10/13 06:39:09;;;;;;;18.67;9.73;;;13.50;99.90;;;;;;4991726;28;20063;-77
2022/10/13 06:41:37;;;;;;;24.63;10.77;;;13.50;99.90;;;;;;5010772;28;20083;-77
2022/10/13 06:44:04;;;;;;;21.35;10.00;;;13.60;99.90;;;;;;5013061;28;20046;-77
2022/10/13 06:46:31;;;;;;;21.48;9.52;;;13.60;99.90;;;;;;4996281;28;20046;-77
2022/10/13 06:48:58;;;;;;;23.52;10.05;;;13.60;99.90;;;;;;4994699;28;20052;-77
2022/10/13 06:51:25;;;;;;;26.10;10.90;;;13.60;99.90;;;;;;5012354;28;20050;-77
2022/10/13 06:53:57;;;;;;;17.75;10.40;;;13.60;99.90;;;;;;5006121;28;20050;-77
2022/10/13 06:56:25;;;;;;;22.42;11.82;;;13.60;99.90;;;;;;4990930;28;20058;-77
2022/10/13 06:58:52;;;;;;;25.25;11.88;;;13.60;99.90;;;;;;4993148;28;20173;-77
2022/10/13 07:01:19;;;;;;;22.27;12.68;;;13.60;99.90;;;;;;5012056;28;20045;-77
2022/10/13 07:03:48;;;;;;;25.58;11.95;;;13.60;99.90;;;;;;4999634;28;20046;-77
2022/10/13 07:06:18;;;;;;;;;;;13.60;99.90;;;;;;4995332;28;20434;-77
2022/10/13 07:08:45;;;;;;;24.38;9.75;;;13.60;99.90;;;;;;5002453;28;19925;-77
2022/10/13 07:11:15;;;;;;;19.13;9.82;;;13.60;99.90;;;;;;5012382;28;20607;-77
2022/10/13 07:13:42;;;;;;;20.15;9.85;;;13.60;99.90;;;;;;5004010;28;20130;-77
2022/10/13 07:16:09;;;;;;;23.75;10.07;;;13.60;99.90;;;;;;4992379;28;20069;-76
2022/10/13 07:18:36;;;;;;;20.08;9.70;;;13.60;99.90;;;;;;4992677;28;20050;-76
2022/10/13 07:21:03;;;;;;;24.58;10.45;;;13.70;99.90;;;;;;4992305;28;20050;-77
2022/10/13 07:23:30;;;;;;;19.42;10.32;;;13.70;99.90;;;;;;5008166;28;20058;-77
2022/10/13 07:25:57;;;;;;;21.40;10.10;;;13.70;99.90;;;;;;5011267;28;20124;-77
2022/10/13 07:28:26;;;;;;;24.38;10.52;;;13.70;99.90;;;;;;4997163;28;20046;-77
2022/10/13 07:30:53;;;;;;;19.70;9.98;;;13.80;99.90;;;;;;4992289;28;20066;-77
2022/10/13 07:33:20;;;;;;;22.55;10.43;;;13.80;99.90;;;;;;5004956;28;20060;-77
2022/10/13 07:35:47;;;;;;;18.80;10.32;;;13.80;99.90;;;;;;5011182;28;20121;-77
2022/10/13 07:38:14;;;;;;;21.27;10.73;;;14.00;99.90;;;;;;5010911;28;20042;-77
2022/10/13 07:40:43;;;;;;;23.75;12.50;;;13.90;99.90;;;;;;5011251;28;20141;-77
2022/10/13 07:43:10;;;;;;;19.98;11.20;;;13.90;99.90;;;;;;5010932;28;20053;-77
2022/10/13 07:45:38;;;;;;;18.42;10.13;;;14.00;99.90;;;;;;5011371;28;20081;-77
2022/10/13 07:48:05;;;;;;;24.33;10.65;;;14.00;99.90;;;;;;4996389;28;20038;-77
2022/10/13 07:50:32;;;;;;;19.55;9.68;;;14.00;99.90;;;;;;4991736;28;20518;-77
2022/10/13 07:52:59;;;;;;;20.33;10.35;;;14.00;99.90;;;;;;4993150;28;20514;-77
2022/10/13 07:55:26;;;;;;;24.30;10.25;;;14.10;99.90;;;;;;4991477;28;20050;-77
2022/10/13 07:57:54;;;;;;;19.92;9.95;;;14.10;99.90;;;;;;5003908;28;20042;-77
2022/10/13 08:00:21;;;;;;;20.05;10.30;;;14.10;99.90;;;;;;5011250;28;20045;-77
2022/10/13 08:02:51;;;;;;;19.80;9.63;;;14.20;99.90;;;;;;5009223;28;20046;-77
2022/10/13 08:05:18;;;;;;;23.35;10.68;;;14.20;99.90;;;;;;5010909;28;20086;-77
2022/10/13 08:07:44;;;;;;;21.48;9.38;;;14.20;99.90;;;;;;5000785;28;20081;-77
2022/10/13 08:10:13;;;;;;;21.80;9.88;;;14.20;99.90;;;;;;4991445;28;20411;-77
2022/10/13 08:12:40;;;;;;;23.88;10.13;;;14.20;99.90;;;;;;4995516;28;20077;-77
2022/10/13 08:15:09;;;;;;;21.83;9.10;;;14.30;99.90;;;;;;4997988;28;20038;-77
2022/10/13 08:17:36;;;;;;;25.10;10.65;;;14.30;99.90;;;;;;4991488;28;20069;-74
2022/10/13 08:20:06;;;;;;;20.55;10.60;;;14.30;99.90;;;;;;4998276;28;20487;-74
2022/10/13 08:22:33;;;;;;;19.00;10.13;;;14.30;99.90;;;;;;5001839;28;20042;-74
2022/10/13 08:25:01;;;;;;;24.48;10.75;;;14.40;99.90;;;;;;4990555;28;20562;-74
2022/10/13 08:27:28;;;;;;;24.55;10.15;;;14.40;99.90;;;;;;4995667;28;20121;-75
2022/10/13 08:29:55;;;;;;;22.00;10.20;;;14.50;99.90;;;;;;5008855;28;20042;-75
2022/10/13 08:32:22;;;;;;;24.58;10.93;;;14.50;99.90;;;;;;5008335;28;20124;-73
2022/10/13 08:34:50;;;;;;;20.52;10.45;;;14.50;99.90;;;;;;5005337;28;20837;-75
2022/10/13 08:37:20;;;;;;;21.40;9.63;;;14.60;99.90;;;;;;5001958;28;20073;-75
2022/10/13 08:39:48;;;;;;;16.70;9.27;;;14.60;99.90;;;;;;5009403;28;20045;-74
2022/10/13 08:42:17;;;;;;;22.42;9.70;;;14.60;99.90;;;;;;5009722;28;20057;-74
2022/10/13 08:44:46;;;;;;;26.27;11.63;;;14.60;99.90;;;;;;4990745;28;20125;-75
2022/10/13 08:47:18;;;;;;;25.70;11.82;;;14.60;99.90;;;;;;5002452;28;20080;-74
2022/10/13 08:49:46;;;;;;;20.20;10.57;;;14.60;99.90;;;;;;4991155;28;20443;-75
2022/10/13 08:52:19;;;;;;;18.92;10.63;;;14.60;99.90;;;;;;4990858;28;20042;-74
2022/10/13 08:54:46;;;;;;;19.88;10.07;;;14.70;99.90;;;;;;4990338;28;20050;-74
2022/10/13 08:57:15;;;;;;;23.77;10.23;;;14.70;99.90;;;;;;4990699;28;20462;-75
2022/10/13 08:59:42;;;;;;;22.08;11.00;;;14.70;99.90;;;;;;4990714;28;20406;-74
2022/10/13 09:02:12;;;;;;;19.67;10.20;;;14.70;99.90;;;;;;4992050;28;20125;-74
2022/10/13 09:04:41;;;;;;;15.63;10.00;;;14.70;99.90;;;;;;5009080;28;20061;-75
2022/10/13 09:07:13;;;;;;;23.90;11.20;;;14.70;99.90;;;;;;5022194;28;20514;-74
2022/10/13 09:09:42;;;;;;;20.23;9.70;;;14.80;99.90;;;;;;5009969;28;20048;-74
2022/10/13 09:12:10;;;;;;;21.02;10.30;;;14.80;99.90;;;;;;5009744;28;20056;-75
2022/10/13 09:14:38;;;;;;;25.10;10.77;;;14.80;99.90;;;;;;4990222;28;20046;-75
2022/10/13 09:17:18;;;;;;;18.23;9.75;;;14.90;99.90;;;;;;4990052;28;20487;-75
2022/10/13 09:19:45;;;;;;;22.40;9.60;;;14.90;99.90;;;;;;4990471;28;20515;-76
2022/10/13 09:22:22;;;;;;;20.55;10.25;;;15.00;99.90;;;;;;4989781;28;20042;-76
2022/10/13 09:25:17;;;;;;;21.50;10.57;;;15.00;99.90;;;;;;4990082;28;20141;-76
2022/10/13 09:27:46;;;;;;;20.73;10.63;;;15.00;99.90;;;;;;5008828;28;20050;-76
2022/10/13 09:30:34;;;;;;;16.63;9.75;;;15.10;99.90;;;;;;5009757;28;20479;-76
2022/10/13 09:33:24;;;;;;;25.38;9.68;;;15.10;99.90;;;;;;4990217;28;20043;-76
2022/10/13 09:36:11;;;;;;;20.38;9.60;;;15.20;99.90;;;;;;4990208;28;20046;-75
2022/10/13 09:38:39;;;;;;;19.33;9.35;;;15.20;99.90;;;;;;4990228;28;20055;-76
2022/10/13 09:41:13;;;;;;;19.73;8.75;;;15.30;99.90;;;;;;4990159;28;20051;-76
2022/10/13 09:43:43;;;;;;;18.67;8.77;;;15.50;99.90;;;;;;4990179;28;20042;-75
2022/10/13 09:46:17;;;;;;;18.45;9.13;;;15.30;99.90;;;;;;4989236;28;20042;-76
2022/10/13 09:48:48;;;;;;;19.60;9.30;;;15.40;99.90;;;;;;4989979;28;20042;-75
2022/10/13 09:51:31;;;;;;;19.85;8.98;;;15.40;99.90;;;;;;4990667;28;20495;-75
2022/10/13 09:53:58;;;;;;;17.30;8.55;;;15.50;99.90;;;;;;4990062;28;20081;-75
2022/10/13 09:56:31;;;;;;;20.80;8.52;;;15.50;99.90;;;;;;4990713;28;20048;-75
2022/10/13 09:59:08;;;;;;;21.88;8.82;;;15.60;99.90;;;;;;5008474;28;20046;-75
2022/10/13 10:01:39;;;;;;;19.60;9.40;;;15.60;99.90;;;;;;5008891;28;20573;-75
2022/10/13 10:04:12;;;;;;;21.30;9.65;;;15.60;99.90;;;;;;5007732;28;20147;-75
2022/10/13 10:06:40;;;;;;;23.45;8.80;;;15.70;99.90;;;;;;5006437;28;20045;-75
2022/10/13 10:09:19;;;;;;;18.17;7.57;;;15.70;99.90;;;;;;4989534;28;20039;-75
2022/10/13 10:11:50;;;;;;;16.23;8.27;;;15.70;99.90;;;;;;4996508;28;20042;-75
2022/10/13 10:14:24;;;;;;;20.52;8.73;;;15.80;99.90;;;;;;5007584;28;20137;-75
2022/10/13 10:16:57;;;;;;;15.77;7.88;;;15.80;99.90;;;;;;5001924;28;20446;-75
2022/10/13 10:19:28;;;;;;;21.23;8.27;;;15.80;99.90;;;;;;4991884;28;20521;-75
2022/10/13 10:22:02;;;;;;;17.90;7.72;;;15.90;99.90;;;;;;5009331;28;20054;-75
2022/10/13 10:24:37;;;;;;;17.05;7.20;;;15.90;99.90;;;;;;5007456;28;20034;-75
2022/10/13 10:27:08;;;;;;;15.43;7.50;;;16.00;99.90;;;;;;5008675;28;20095;-75
2022/10/13 10:29:42;;;;;;;24.37;8.87;;;16.00;99.90;;;;;;5004072;28;20038;-75
2022/10/13 10:32:29;;;;;;;17.63;7.70;;;16.00;99.90;;;;;;4989644;28;20046;-75
2022/10/13 10:35:00;;;;;;;16.40;9.18;;;16.00;99.90;;;;;;4987699;28;20084;-75
2022/10/13 10:37:43;;;;;;;20.92;10.52;;;16.10;99.90;;;;;;4989209;28;20051;-76
2022/10/13 10:40:19;;;;;;;21.92;8.00;;;16.10;99.90;;;;;;5001763;28;20642;-75
2022/10/13 10:43:00;;;;;;;17.00;8.60;;;16.10;99.90;;;;;;4993644;28;20042;-76
2022/10/13 10:45:31;;;;;;;19.55;8.07;;;16.10;99.90;;;;;;5008046;28;20045;-75
2022/10/13 10:48:01;;;;;;;13.95;7.65;;;16.20;99.90;;;;;;5000529;28;20049;-76
2022/10/13 10:50:30;;;;;;;17.85;8.60;;;16.20;99.90;;;;;;4996610;28;20039;-76
2022/10/13 10:53:01;;;;;;;16.85;7.90;;;16.20;99.90;;;;;;4989316;28;20163;-75
2022/10/13 10:55:33;;;;;;;19.30;8.43;;;16.30;99.90;;;;;;4998876;28;20046;-76
2022/10/13 10:58:11;;;;;;;16.42;7.82;;;16.30;99.90;;;;;;5008393;28;20042;-75
2022/10/13 11:00:42;;;;;;;17.15;7.63;;;16.40;99.90;;;;;;5007082;28;20045;-76
2022/10/13 11:03:17;;;;;;;14.73;7.70;;;16.40;99.90;;;;;;4995738;28;20054;-76
2022/10/13 11:06:02;;;;;;;18.70;7.40;;;16.50;99.90;;;;;;4992276;28;20483;-76
2022/10/13 11:08:32;;;;;;;24.80;8.10;;;16.50;99.90;;;;;;4994781;28;20574;-75
2022/10/13 11:11:33;;;;;;;18.40;7.70;;;16.50;99.90;;;;;;5011524;28;20042;-75
2022/10/13 11:14:15;;;;;;;18.98;7.55;;;16.50;99.90;;;;;;4992781;28;20132;-76
2022/10/13 11:17:01;;;;;;;14.27;7.75;;;16.50;99.90;;;;;;5000969;28;20161;-76
2022/10/13 11:19:29;;;;;;;18.40;7.53;;;16.50;99.90;;;;;;4993767;28;20414;-78
2022/10/13 11:22:19;;;;;;;17.60;7.70;;;16.50;99.90;;;;;;4992479;28;20046;-74
2022/10/13 11:24:58;;;;;;;19.17;7.43;;;16.50;99.90;;;;;;5004916;28;20132;-73
2022/10/13 11:27:28;;;;;;;16.70;7.40;;;16.50;99.90;;;;;;5012242;28;20046;-73
2022/10/13 11:29:58;;;;;;;20.77;8.07;;;16.50;99.90;;;;;;5010314;28;20045;-74
2022/10/13 11:32:54;;;;;;;18.67;7.68;;;16.40;99.90;;;;;;5012034;28;20056;-73
2022/10/13 11:35:23;;;;;;;15.57;7.57;;;16.40;99.90;;;;;;5011837;28;20192;-73
2022/10/13 11:38:18;;;;;;;15.80;7.95;;;16.40;99.90;;;;;;5011633;28;20418;-73
2022/10/13 11:41:02;;;;;;;16.83;7.72;;;16.40;99.90;;;;;;4990543;28;20553;-74
2022/10/13 11:43:40;;;;;;;15.10;6.72;;;16.40;99.90;;;;;;5012136;28;20056;-73
2022/10/13 11:46:19;;;;;;;19.70;7.63;;;16.40;99.90;;;;;;5011629;28;20049;-73
2022/10/13 11:49:28;;;;;;;14.50;7.88;;;16.40;99.90;;;;;;5011728;28;20054;-74
2022/10/13 11:52:11;;;;;;;14.13;7.15;;;16.40;99.90;;;;;;4950620;29;20051;-73
2022/10/13 11:54:41;;;;;;;18.13;8.25;;;16.40;99.90;;;;;;4950586;29;20555;-74
2022/10/13 11:57:19;;;;;;;18.33;7.45;;;16.40;99.90;;;;;;4989309;28;20073;-73
2022/10/13 11:59:47;;;;;;;16.80;6.72;;;16.40;99.90;;;;;;5011706;28;20046;-74
2022/10/13 12:02:17;;;;;;;17.73;7.00;;;16.40;99.90;;;;;;5011300;28;20045;-73
2022/10/13 12:04:45;;;;;;;14.73;6.80;;;16.40;99.90;;;;;;5011135;28;20050;-73
2022/10/13 12:07:15;;;;;;;17.20;6.70;;;16.40;99.90;;;;;;5011150;28;20037;-74
2022/10/13 12:09:51;;;;;;;18.13;7.07;;;16.30;99.90;;;;;;5011284;28;20080;-73
2022/10/13 12:12:23;;;;;;;13.43;6.75;;;16.30;99.90;;;;;;5010994;28;20076;-73
2022/10/13 12:14:54;;;;;;;17.58;7.28;;;16.40;99.90;;;;;;5010964;28;20388;-73
2022/10/13 12:17:29;;;;;;;17.05;7.47;;;16.40;99.90;;;;;;5011340;28;20069;-73
2022/10/13 12:19:57;;;;;;;21.45;7.05;;;16.30;99.90;;;;;;5010643;28;20049;-73
2022/10/13 12:22:26;;;;;;;16.27;7.45;;;16.30;99.90;;;;;;5015305;22;20120;-81
2022/10/13 12:25:00;;;;;;;11.73;6.47;;;16.30;99.90;;;;;;4990200;28;20066;-81
2022/10/13 12:27:31;;;;;;;15.30;7.68;;;16.30;99.90;;;;;;4991539;28;20069;-81
2022/10/13 12:29:58;;;;;;;17.27;8.95;;;16.30;99.90;;;;;;4991100;28;20125;-81
2022/10/13 12:32:28;;;;;;;20.80;8.30;;;16.20;99.90;;;;;;4981478;28;20051;-81
2022/10/13 12:34:55;;;;;;;21.23;9.10;;;16.20;99.90;;;;;;4971883;28;20054;-81
2022/10/13 12:37:27;;;;;;;17.55;8.82;;;16.20;99.90;;;;;;4972076;28;20316;-81
2022/10/13 12:39:55;;;;;;;18.33;9.68;;;16.20;99.90;;;;;;4971867;28;20064;-81
2022/10/13 12:42:28;;;;;;;21.52;8.07;;;16.20;99.90;;;;;;4971672;28;20039;-81
2022/10/13 12:44:56;;;;;;;19.95;8.32;;;16.10;99.90;;;;;;4971551;28;20070;-81
2022/10/13 12:47:39;;;;;;;16.80;7.97;;;16.10;99.90;;;;;;4971897;28;20046;-81